Time;durP1;ratioP1;P1;durP2;ratioP2;P2;SDS_P1;SDS_P2;PMS_P1;PMS_P2;Temp;Humidity;BMP_temperature;BMP_pressure;BME280_temperature;BME280_humidity;BME280_pressure;Samples;Min_cycle;Max_cycle;Signal;HPM_P1;HPM_P2
2022/10/03 00:01:08;;;;;;;3.77;2.90;;;14.30;99.90;;;;;;5075259;28;20984;-70
2022/10/03 00:03:53;;;;;;;3.17;2.80;;;14.40;99.90;;;;;;5075681;28;20387;-70
2022/10/03 00:06:38;;;;;;;3.97;3.57;;;14.50;99.90;;;;;;5075652;28;20749;-69
2022/10/03 00:09:20;;;;;;;3.23;2.93;;;14.50;99.90;;;;;;5074703;28;20429;-70
2022/10/03 00:12:11;;;;;;;3.77;3.47;;;14.50;99.90;;;;;;5074431;28;20447;-69
2022/10/03 00:14:59;;;;;;;5.63;4.63;;;14.30;99.90;;;;;;5072951;28;20503;-70
2022/10/03 00:17:43;;;;;;;5.67;5.17;;;14.20;99.90;;;;;;5073133;28;20450;-70
2022/10/03 00:20:36;;;;;;;6.13;5.53;;;13.90;99.90;;;;;;5074140;28;20399;-70
2022/10/03 00:23:13;;;;;;;5.77;5.27;;;13.90;99.90;;;;;;5075024;28;20431;-70
2022/10/03 00:26:25;;;;;;;5.93;5.17;;;14.00;99.90;;;;;;5074697;28;20903;-70
2022/10/03 00:28:55;;;;;;;5.00;4.20;;;14.10;99.90;;;;;;5074117;28;20434;-70
2022/10/03 00:31:35;;;;;;;5.33;4.90;;;14.10;99.90;;;;;;5074291;28;20583;-70
2022/10/03 00:34:14;;;;;;;7.33;6.70;;;14.20;99.90;;;;;;5073928;28;20388;-70
2022/10/03 00:37:24;;;;;;;6.17;5.70;;;14.30;99.90;;;;;;5074975;28;20743;-69
2022/10/03 00:39:55;;;;;;;5.90;5.40;;;14.40;99.90;;;;;;5040271;28;20407;-70
2022/10/03 00:42:42;;;;;;;5.37;4.87;;;14.60;99.90;;;;;;5074069;28;20406;-69
2022/10/03 00:45:35;;;;;;;4.87;4.37;;;14.70;99.90;;;;;;5073951;28;20395;-70
2022/10/03 00:48:22;;;;;;;6.50;5.90;;;14.70;99.90;;;;;;5073593;28;20425;-70
2022/10/03 00:50:56;;;;;;;7.10;5.73;;;14.50;99.90;;;;;;5073634;28;20866;-70
2022/10/03 00:53:31;;;;;;;7.03;6.03;;;14.50;99.90;;;;;;5073966;28;20403;-71
2022/10/03 00:56:17;;;;;;;8.37;7.67;;;14.50;99.90;;;;;;5073903;28;20404;-71
2022/10/03 00:59:09;;;;;;;7.00;6.40;;;14.60;99.90;;;;;;5072604;28;20480;-68
2022/10/03 01:01:44;;;;;;;8.17;7.47;;;14.70;99.90;;;;;;5074160;28;20940;-70
2022/10/03 01:04:45;;;;;;;7.83;7.20;;;14.70;99.90;;;;;;5073893;28;20415;-70
2022/10/03 01:07:27;;;;;;;8.27;7.57;;;14.70;99.90;;;;;;5074449;28;20413;-70
2022/10/03 01:10:08;;;;;;;6.47;5.97;;;14.60;99.90;;;;;;5073864;28;20396;-70
2022/10/03 01:13:13;;;;;;;6.67;6.13;;;14.60;99.90;;;;;;5072973;28;20530;-70
2022/10/03 01:16:09;;;;;;;9.33;7.53;;;14.60;99.90;;;;;;5074025;28;20374;-70
2022/10/03 01:18:49;;;;;;;7.40;6.70;;;14.70;99.90;;;;;;5073354;28;20499;-70
2022/10/03 01:21:31;;;;;;;9.23;8.40;;;14.70;99.90;;;;;;5072636;28;20444;-70
2022/10/03 01:24:31;;;;;;;6.43;5.83;;;14.70;99.90;;;;;;5073563;28;20424;-70
2022/10/03 01:27:04;;;;;;;7.43;6.67;;;14.70;99.90;;;;;;5073332;28;20403;-71
2022/10/03 01:32:51;;;;;;;8.33;7.53;;;14.70;99.90;;;;;;5073508;28;20762;-70
2022/10/03 01:35:47;;;;;;;7.43;6.73;;;14.70;99.90;;;;;;5073355;28;20388;-71
2022/10/03 01:38:25;;;;;;;7.33;6.60;;;14.60;99.90;;;;;;5066416;28;20878;-71
2022/10/03 01:41:01;;;;;;;6.90;6.30;;;14.70;99.90;;;;;;5073742;28;20387;-70
2022/10/03 01:43:50;;;;;;;8.47;7.67;;;14.80;99.90;;;;;;5072866;28;20485;-70
2022/10/03 01:46:22;;;;;;;7.30;6.60;;;14.70;99.90;;;;;;5074401;28;20389;-71
2022/10/03 01:49:00;;;;;;;8.00;7.30;;;14.60;99.90;;;;;;5073843;28;20492;-71
2022/10/03 01:51:41;;;;;;;8.97;8.00;;;14.50;99.90;;;;;;5073373;28;20549;-71
2022/10/03 01:54:36;;;;;;;9.80;8.90;;;14.50;99.90;;;;;;5072133;28;20978;-70
2022/10/03 01:57:38;;;;;;;10.13;9.10;;;14.50;99.90;;;;;;5073724;28;20895;-70
2022/10/03 02:00:14;;;;;;;9.13;8.27;;;14.60;99.90;;;;;;5071719;28;20769;-70
2022/10/03 02:02:40;;;;;;;11.93;10.47;;;14.50;99.90;;;;;;5072412;28;20418;-70
2022/10/03 02:05:13;;;;;;;9.70;8.90;;;14.30;99.90;;;;;;5052739;28;20505;-70
2022/10/03 02:07:49;;;;;;;9.07;8.27;;;14.30;99.90;;;;;;5052837;28;20202;-71
2022/10/03 02:10:34;;;;;;;9.40;8.47;;;14.30;99.90;;;;;;5072452;28;20399;-70
2022/10/03 02:13:24;;;;;;;9.00;8.20;;;14.00;99.90;;;;;;5072978;28;20405;-71
2022/10/03 02:16:19;;;;;;;10.47;9.57;;;13.90;99.90;;;;;;5072961;28;20376;-70
2022/10/03 02:19:18;;;;;;;10.77;9.73;;;14.10;99.90;;;;;;5072206;28;20791;-70
2022/10/03 02:21:49;;;;;;;7.73;6.93;;;13.90;99.90;;;;;;5072880;28;20930;-70
2022/10/03 02:24:15;;;;;;;7.93;7.23;;;13.90;99.90;;;;;;5072250;28;20414;-71
2022/10/03 02:26:58;;;;;;;8.47;7.67;;;14.00;99.90;;;;;;5072387;28;20984;-69
2022/10/03 02:29:41;;;;;;;7.77;7.07;;;14.00;99.90;;;;;;5070708;28;20191;-70
2022/10/03 02:32:41;;;;;;;7.87;6.80;;;14.00;99.90;;;;;;5072316;28;20520;-69
2022/10/03 02:35:09;;;;;;;7.70;7.00;;;14.00;99.90;;;;;;5074936;28;20916;-71
2022/10/03 02:37:52;;;;;;;10.73;9.70;;;14.20;99.90;;;;;;5076081;28;20970;-70
2022/10/03 02:40:39;;;;;;;7.80;7.00;;;14.40;99.90;;;;;;5075910;28;20421;-69
2022/10/03 02:43:05;;;;;;;8.07;7.17;;;14.50;99.90;;;;;;5075975;28;20470;-70
2022/10/03 02:45:57;;;;;;;8.77;7.87;;;14.40;99.90;;;;;;5076342;28;20411;-70
2022/10/03 02:48:46;;;;;;;8.73;7.93;;;14.50;99.90;;;;;;5076681;28;20727;-70
2022/10/03 02:51:41;;;;;;;9.10;8.20;;;14.50;99.90;;;;;;5074609;28;20471;-69
2022/10/03 02:54:31;;;;;;;9.60;7.70;;;14.50;99.90;;;;;;5076013;28;20760;-70
2022/10/03 02:57:30;;;;;;;7.53;6.83;;;14.50;99.90;;;;;;5075866;28;20415;-71
2022/10/03 03:00:11;;;;;;;11.87;9.60;;;14.50;99.90;;;;;;5056466;28;20384;-70
2022/10/03 03:03:00;;;;;;;8.43;7.63;;;14.40;99.90;;;;;;5056587;28;20433;-71
2022/10/03 03:06:07;;;;;;;9.07;8.23;;;14.40;99.90;;;;;;5056317;28;20901;-70
2022/10/03 03:08:46;;;;;;;9.20;8.30;;;14.50;99.90;;;;;;5027144;28;20953;-70
2022/10/03 03:11:38;;;;;;;8.43;7.50;;;14.50;99.90;;;;;;5055893;28;20436;-69
2022/10/03 03:14:47;;;;;;;10.87;9.77;;;14.50;99.90;;;;;;5055218;28;20797;-69
2022/10/03 03:17:36;;;;;;;9.37;8.47;;;14.40;99.90;;;;;;5055858;28;20372;-69
2022/10/03 03:20:04;;;;;;;11.10;10.00;;;14.40;99.90;;;;;;5056130;28;20399;-69
2022/10/03 03:23:07;;;;;;;8.33;7.60;;;14.40;99.90;;;;;;5055589;28;20448;-69
2022/10/03 03:26:01;;;;;;;10.20;8.57;;;14.30;99.90;;;;;;5055675;28;20414;-70
2022/10/03 03:29:05;;;;;;;10.33;9.33;;;14.30;99.90;;;;;;5067084;28;20454;-70
2022/10/03 03:31:50;;;;;;;16.80;13.27;;;14.20;99.90;;;;;;5043325;28;20552;-71
2022/10/03 03:34:48;;;;;;;13.30;11.47;;;14.00;99.90;;;;;;5075763;28;20447;-70
2022/10/03 03:37:30;;;;;;;11.23;8.80;;;13.90;99.90;;;;;;5074549;28;20813;-70
2022/10/03 03:40:08;;;;;;;11.73;8.47;;;13.80;99.90;;;;;;5075817;28;20387;-70
2022/10/03 03:43:04;;;;;;;9.77;8.57;;;13.80;99.90;;;;;;5075341;28;20795;-69
2022/10/03 03:45:39;;;;;;;14.20;11.20;;;13.80;99.90;;;;;;5054914;28;20393;-69
2022/10/03 03:48:23;;;;;;;9.70;8.70;;;13.80;99.90;;;;;;5055324;28;20435;-69
2022/10/03 03:51:00;;;;;;;10.07;9.07;;;13.80;99.90;;;;;;5054984;28;20471;-69
2022/10/03 03:54:01;;;;;;;9.30;8.30;;;13.80;99.90;;;;;;5055626;28;20407;-69
2022/10/03 03:57:00;;;;;;;14.77;10.00;;;13.80;99.90;;;;;;5055612;28;20391;-69
2022/10/03 03:59:58;;;;;;;9.17;8.20;;;13.80;99.90;;;;;;5073697;28;20996;-69
2022/10/03 04:02:54;;;;;;;10.90;8.80;;;13.70;99.90;;;;;;5075664;28;20394;-68
2022/10/03 04:05:49;;;;;;;9.37;7.83;;;13.70;99.90;;;;;;5054813;28;20391;-69
2022/10/03 04:09:01;;;;;;;9.57;8.20;;;13.70;99.90;;;;;;5054784;28;20454;-69
2022/10/03 04:11:53;;;;;;;8.97;8.07;;;13.60;99.90;;;;;;5054605;28;20449;-69
2022/10/03 04:15:16;;;;;;;8.00;7.20;;;13.50;99.90;;;;;;5072605;28;20415;-69
2022/10/03 04:21:02;;;;;;;7.67;6.97;;;13.60;99.90;;;;;;5013469;28;20411;-68
2022/10/03 04:23:33;;;;;;;8.87;8.10;;;13.60;99.90;;;;;;5048288;28;20479;-69
2022/10/03 04:26:17;;;;;;;9.13;7.10;;;13.60;99.90;;;;;;5055035;28;20402;-70
2022/10/03 04:29:18;;;;;;;10.37;9.37;;;13.60;99.90;;;;;;5054557;28;20421;-69
2022/10/03 04:32:22;;;;;;;8.43;7.50;;;13.50;99.90;;;;;;5055452;28;20770;-69
2022/10/03 04:35:41;;;;;;;10.20;7.57;;;13.50;99.90;;;;;;4992898;28;20545;-69
2022/10/03 04:38:44;;;;;;;12.17;9.70;;;13.60;99.90;;;;;;4991628;28;20448;-73
2022/10/03 04:41:29;;;;;;;10.83;9.00;;;13.60;99.90;;;;;;5054558;28;20420;-70
2022/10/03 04:44:03;;;;;;;8.77;7.93;;;13.50;99.90;;;;;;5054297;28;20386;-70
2022/10/03 04:46:49;;;;;;;9.37;7.40;;;13.50;99.90;;;;;;5054479;28;20394;-69
2022/10/03 04:49:26;;;;;;;7.93;7.03;;;13.50;99.90;;;;;;5053893;28;20523;-70
2022/10/03 04:52:04;;;;;;;10.17;8.70;;;13.50;99.90;;;;;;5053996;28;20452;-70
2022/10/03 04:55:03;;;;;;;10.87;9.77;;;13.50;99.90;;;;;;5053437;28;20762;-70
2022/10/03 04:57:35;;;;;;;10.53;9.43;;;13.40;99.90;;;;;;5053464;28;20985;-71
2022/10/03 05:00:14;;;;;;;9.63;8.63;;;13.40;99.90;;;;;;5073866;28;20405;-70
2022/10/03 05:03:09;;;;;;;9.67;8.47;;;13.40;99.90;;;;;;5074475;28;20779;-70
2022/10/03 05:05:49;;;;;;;9.37;8.30;;;13.50;99.90;;;;;;5073845;28;20478;-70
2022/10/03 05:08:21;;;;;;;9.13;8.33;;;13.50;99.90;;;;;;5073750;28;20429;-70
2022/10/03 05:10:59;;;;;;;11.33;8.17;;;13.60;99.90;;;;;;5072539;28;20427;-70
2022/10/03 05:13:42;;;;;;;10.43;8.27;;;13.60;99.90;;;;;;5074048;28;20393;-70
2022/10/03 05:16:18;;;;;;;10.77;9.17;;;13.50;99.90;;;;;;5073963;28;20945;-70
2022/10/03 05:19:21;;;;;;;9.10;7.17;;;13.50;99.90;;;;;;5072106;28;20586;-70
2022/10/03 05:22:04;;;;;;;12.67;10.17;;;13.50;99.90;;;;;;5074501;28;20402;-71
2022/10/03 05:25:06;;;;;;;10.23;9.00;;;13.60;99.90;;;;;;5076369;28;20890;-70
2022/10/03 05:27:50;;;;;;;10.93;9.83;;;13.70;99.90;;;;;;5073756;28;20779;-71
2022/10/03 05:30:43;;;;;;;9.70;8.77;;;13.80;99.90;;;;;;5071293;28;20442;-71
2022/10/03 05:33:21;;;;;;;9.03;8.20;;;13.90;99.90;;;;;;5052788;28;20425;-70
2022/10/03 05:36:11;;;;;;;9.37;8.47;;;13.90;99.90;;;;;;5053666;28;20385;-70
2022/10/03 05:39:14;;;;;;;9.57;8.60;;;13.90;99.90;;;;;;5053177;28;20416;-69
2022/10/03 05:41:52;;;;;;;14.13;8.80;;;13.80;99.90;;;;;;5052938;28;20411;-70
2022/10/03 05:44:24;;;;;;;9.83;8.60;;;13.80;99.90;;;;;;5068733;28;20422;-70
2022/10/03 05:46:59;;;;;;;9.93;8.57;;;13.90;99.90;;;;;;5073347;28;20949;-70
2022/10/03 05:50:19;;;;;;;11.87;10.50;;;13.90;99.90;;;;;;5073238;28;20927;-70
2022/10/03 05:53:09;;;;;;;11.77;9.97;;;13.80;99.90;;;;;;4991872;28;21011;-70
2022/10/03 05:55:48;;;;;;;10.97;9.83;;;13.80;99.90;;;;;;5071911;28;20450;-70
2022/10/03 05:58:31;;;;;;;12.77;10.47;;;13.80;99.90;;;;;;5073195;28;20424;-69
2022/10/03 06:01:08;;;;;;;13.83;11.67;;;13.60;99.90;;;;;;5073150;28;20391;-69
2022/10/03 06:03:52;;;;;;;16.97;12.50;;;13.50;99.90;;;;;;5073294;28;20398;-69
2022/10/03 06:06:32;;;;;;;22.33;15.60;;;13.30;99.90;;;;;;5073058;28;20435;-70
2022/10/03 06:08:58;;;;;;;21.80;17.13;;;13.20;99.90;;;;;;5075632;28;20490;-69
2022/10/03 06:11:53;;;;;;;14.90;12.93;;;13.20;99.90;;;;;;5074901;28;20825;-70
2022/10/03 06:15:07;;;;;;;25.63;16.50;;;13.40;99.90;;;;;;5076522;28;20178;-70
2022/10/03 06:17:58;;;;;;;19.00;16.03;;;13.30;99.90;;;;;;5012356;28;20445;-70
2022/10/03 06:20:55;;;;;;;21.67;15.93;;;13.20;99.90;;;;;;5068039;28;20404;-69
2022/10/03 06:23:44;;;;;;;24.10;16.47;;;13.20;99.90;;;;;;5067508;28;20409;-70
2022/10/03 06:26:38;;;;;;;20.97;16.00;;;13.20;99.90;;;;;;5066655;28;20967;-71
2022/10/03 06:29:18;;;;;;;17.70;15.57;;;13.20;99.90;;;;;;5067947;28;20493;-70
2022/10/03 06:32:00;;;;;;;24.80;17.83;;;13.20;99.90;;;;;;5067537;28;20476;-69
2022/10/03 06:34:41;;;;;;;17.20;15.37;;;13.40;99.90;;;;;;5067510;28;20430;-70
2022/10/03 06:37:47;;;;;;;21.97;16.33;;;13.60;99.90;;;;;;5066966;28;20412;-71
2022/10/03 06:40:51;;;;;;;20.27;14.70;;;13.60;99.90;;;;;;5055855;28;20777;-70
2022/10/03 06:43:55;;;;;;;20.30;14.57;;;13.50;99.90;;;;;;5046511;28;20427;-69
2022/10/03 06:46:59;;;;;;;17.63;15.80;;;13.60;99.90;;;;;;5057573;28;20653;-69
2022/10/03 06:49:51;;;;;;;16.57;13.63;;;13.90;99.90;;;;;;5069263;28;20484;-69
2022/10/03 06:52:44;;;;;;;18.87;16.73;;;14.00;99.90;;;;;;5076629;28;20430;-69
2022/10/03 06:55:30;;;;;;;17.73;14.70;;;14.10;99.90;;;;;;5065576;28;20498;-69
2022/10/03 06:58:11;;;;;;;22.80;18.13;;;14.20;99.90;;;;;;5056887;28;20520;-70
2022/10/03 07:00:48;;;;;;;15.93;13.57;;;14.20;99.90;;;;;;5076131;28;20384;-71
2022/10/03 07:03:34;;;;;;;19.13;13.53;;;14.00;99.90;;;;;;5077064;28;20436;-71
2022/10/03 07:06:33;;;;;;;20.20;15.97;;;14.00;99.90;;;;;;5077156;28;20755;-71
2022/10/03 07:09:26;;;;;;;23.33;15.27;;;14.10;99.90;;;;;;5076502;28;20416;-71
2022/10/03 07:12:32;;;;;;;19.20;14.23;;;14.20;99.90;;;;;;5076080;28;20983;-69
2022/10/03 07:15:13;;;;;;;16.50;12.90;;;14.20;99.90;;;;;;5076281;28;20912;-70
2022/10/03 07:18:16;;;;;;;20.00;13.30;;;14.30;99.90;;;;;;5076348;28;20414;-69
2022/10/03 07:21:14;;;;;;;24.60;16.40;;;14.40;99.90;;;;;;5075160;28;20379;-69
2022/10/03 07:24:11;;;;;;;16.90;13.43;;;14.40;99.90;;;;;;5076789;28;20780;-69
2022/10/03 07:27:01;;;;;;;17.70;13.43;;;14.40;99.90;;;;;;5077135;28;20853;-68
2022/10/03 07:29:45;;;;;;;20.30;13.23;;;13.90;99.90;;;;;;5078755;28;20421;-69
2022/10/03 07:32:30;;;;;;;20.03;14.67;;;13.50;99.90;;;;;;5077924;28;20438;-70
2022/10/03 07:35:20;;;;;;;21.20;17.37;;;13.60;99.90;;;;;;5075872;28;20386;-69
2022/10/03 07:41:17;;;;;;;19.10;16.93;;;13.60;99.90;;;;;;5075915;28;20432;-69
2022/10/03 07:43:56;;;;;;;18.67;15.90;;;13.60;99.90;;;;;;5074340;28;20432;-68
2022/10/03 07:46:43;;;;;;;17.93;14.93;;;13.70;99.90;;;;;;5075496;28;20381;-69
2022/10/03 07:49:30;;;;;;;16.13;13.73;;;13.60;99.90;;;;;;5075076;28;20413;-69
2022/10/03 07:52:09;;;;;;;19.90;16.40;;;13.70;99.90;;;;;;5075664;28;20799;-69
2022/10/03 07:55:31;;;;;;;18.30;14.40;;;13.90;99.90;;;;;;5074178;28;20853;-69
2022/10/03 07:58:09;;;;;;;21.70;16.50;;;14.20;99.90;;;;;;4992984;28;20544;-69
2022/10/03 08:01:03;;;;;;;21.47;16.13;;;14.10;99.90;;;;;;4993692;28;20387;-70
2022/10/03 08:04:00;;;;;;;20.90;16.13;;;13.90;99.90;;;;;;5051772;28;20469;-69
2022/10/03 08:06:34;;;;;;;18.37;14.87;;;13.80;99.90;;;;;;5076242;28;20899;-70
2022/10/03 08:09:17;;;;;;;21.30;17.27;;;13.80;99.90;;;;;;5075169;28;20420;-70
2022/10/03 08:12:10;;;;;;;22.03;17.00;;;13.90;99.90;;;;;;5074071;28;20448;-71
2022/10/03 08:14:44;;;;;;;24.40;18.17;;;14.20;99.90;;;;;;5075368;28;20825;-71
2022/10/03 08:17:37;;;;;;;22.33;16.80;;;14.50;99.90;;;;;;5075322;28;20394;-69
2022/10/03 08:20:30;;;;;;;18.87;16.30;;;14.60;99.90;;;;;;5075545;28;20471;-69
2022/10/03 08:23:02;;;;;;;16.90;14.33;;;14.60;99.90;;;;;;5074887;28;20431;-69
2022/10/03 08:25:51;;;;;;;23.03;16.03;;;14.50;99.90;;;;;;5075471;28;20372;-68
2022/10/03 08:28:54;;;;;;;17.43;15.17;;;14.50;99.90;;;;;;5075781;28;20522;-69
2022/10/03 08:31:19;;;;;;;18.90;12.67;;;14.60;99.90;;;;;;5075924;28;20448;-69
2022/10/03 08:33:52;;;;;;;15.87;14.17;;;14.90;99.90;;;;;;5074658;28;20437;-69
2022/10/03 08:36:59;;;;;;;15.27;12.57;;;14.80;99.90;;;;;;5075736;28;20183;-69
2022/10/03 08:39:44;;;;;;;14.07;12.57;;;14.80;99.90;;;;;;5075964;28;20419;-70
2022/10/03 08:42:39;;;;;;;18.53;15.90;;;14.80;99.90;;;;;;5074057;28;20394;-70
2022/10/03 08:45:42;;;;;;;14.50;13.00;;;14.80;99.90;;;;;;5074043;28;20447;-69
2022/10/03 08:48:45;;;;;;;17.67;14.93;;;14.50;99.90;;;;;;5083339;28;20434;-69
2022/10/03 08:51:39;;;;;;;14.30;12.23;;;14.40;99.90;;;;;;5086487;28;20470;-69
2022/10/03 08:54:27;;;;;;;17.00;10.90;;;14.30;99.90;;;;;;5071294;28;20404;-70
2022/10/03 08:56:52;;;;;;;31.70;21.17;;;14.50;99.90;;;;;;5072107;28;20415;-70
2022/10/03 09:00:02;;;;;;;20.40;15.20;;;14.50;99.90;;;;;;5071190;28;20442;-70
2022/10/03 09:02:51;;;;;;;31.10;25.60;;;14.50;99.90;;;;;;5071384;28;20229;-70
2022/10/03 09:05:44;;;;;;;12.10;10.17;;;14.60;99.90;;;;;;5067837;28;20419;-70
2022/10/03 09:08:47;;;;;;;9.70;8.37;;;14.80;99.90;;;;;;5075480;28;20422;-69
2022/10/03 09:11:19;;;;;;;15.40;13.80;;;14.50;99.90;;;;;;5075629;28;20445;-70
2022/10/03 09:14:14;;;;;;;11.30;8.57;;;14.50;99.90;;;;;;5070958;28;20407;-70
2022/10/03 09:17:29;;;;;;;11.47;8.07;;;14.80;99.90;;;;;;5055534;28;20386;-70
2022/10/03 09:20:03;;;;;;;8.67;7.77;;;14.80;99.90;;;;;;5051599;28;20464;-69
2022/10/03 09:22:32;;;;;;;13.93;10.83;;;15.10;99.90;;;;;;5054109;28;20901;-71
2022/10/03 09:25:18;;;;;;;10.93;8.00;;;15.50;99.90;;;;;;5054361;28;20410;-70
2022/10/03 09:28:32;;;;;;;16.50;9.83;;;15.90;99.90;;;;;;5054094;28;20522;-70
2022/10/03 09:31:17;;;;;;;12.47;9.50;;;15.90;99.90;;;;;;5017032;28;20465;-70
2022/10/03 09:34:15;;;;;;;15.30;11.40;;;15.70;99.90;;;;;;5053904;28;20378;-69
2022/10/03 09:36:44;;;;;;;18.00;12.30;;;15.80;99.90;;;;;;5022509;28;20445;-69
2022/10/03 09:39:52;;;;;;;14.63;9.80;;;15.70;99.90;;;;;;5058951;28;20438;-69
2022/10/03 09:42:51;;;;;;;11.27;8.80;;;15.60;99.90;;;;;;5073179;28;20525;-69
2022/10/03 09:45:29;;;;;;;11.60;8.10;;;15.90;99.90;;;;;;5073459;28;20391;-70
2022/10/03 09:48:21;;;;;;;7.73;6.93;;;15.80;99.90;;;;;;5073128;28;20478;-71
2022/10/03 09:51:16;;;;;;;7.80;6.80;;;15.60;99.90;;;;;;5073189;28;20927;-68
2022/10/03 09:54:07;;;;;;;10.93;7.63;;;15.50;99.90;;;;;;5072906;28;20399;-71
2022/10/03 09:56:54;;;;;;;8.93;7.13;;;15.60;99.90;;;;;;5072821;28;20428;-69
2022/10/03 10:00:18;;;;;;;9.73;7.80;;;15.80;99.90;;;;;;5055520;28;20471;-69
2022/10/03 10:02:55;;;;;;;11.07;6.70;;;16.20;99.90;;;;;;5011624;28;20478;-69
2022/10/03 10:05:49;;;;;;;10.10;6.80;;;16.00;99.90;;;;;;5011416;28;20400;-69
2022/10/03 10:08:44;;;;;;;11.00;8.10;;;15.90;99.90;;;;;;5048027;28;20469;-68
2022/10/03 10:11:40;;;;;;;9.40;7.10;;;16.20;99.90;;;;;;5052958;28;20437;-68
2022/10/03 10:14:36;;;;;;;11.40;7.40;;;16.40;99.90;;;;;;5052486;28;20511;-68
2022/10/03 10:17:01;;;;;;;8.50;7.30;;;16.40;99.90;;;;;;5053288;28;20380;-67
2022/10/03 10:19:42;;;;;;;11.53;7.43;;;16.60;99.90;;;;;;5052767;28;20424;-68
2022/10/03 10:22:35;;;;;;;10.33;7.00;;;16.70;99.90;;;;;;5053176;28;20586;-69
2022/10/03 10:25:00;;;;;;;10.30;6.97;;;16.90;99.90;;;;;;5052346;28;20389;-69
2022/10/03 10:27:58;;;;;;;6.20;5.60;;;17.00;99.90;;;;;;5070590;28;20427;-70
2022/10/03 10:30:24;;;;;;;6.03;5.37;;;16.70;99.90;;;;;;5071268;28;20216;-69
2022/10/03 10:33:23;;;;;;;8.27;5.90;;;17.00;99.90;;;;;;5072122;28;20451;-69
2022/10/03 10:36:26;;;;;;;9.80;5.83;;;17.10;99.90;;;;;;5072658;28;20188;-69
2022/10/03 10:38:52;;;;;;;8.63;5.43;;;17.50;99.90;;;;;;5063153;28;20916;-73
2022/10/03 10:41:57;;;;;;;8.60;5.43;;;17.80;99.90;;;;;;5063085;28;20422;-70
2022/10/03 10:44:40;;;;;;;9.80;6.40;;;17.20;99.90;;;;;;5062691;28;20220;-69
2022/10/03 10:47:29;;;;;;;7.20;5.40;;;16.60;99.90;;;;;;5063076;28;20419;-69
2022/10/03 10:50:19;;;;;;;7.10;5.33;;;16.70;99.90;;;;;;5062939;28;20431;-72
2022/10/03 10:53:04;;;;;;;7.60;5.93;;;16.50;99.90;;;;;;5062940;28;20443;-71
2022/10/03 10:55:50;;;;;;;10.53;5.67;;;16.40;99.90;;;;;;5068601;28;20400;-69
2022/10/03 10:58:56;;;;;;;7.37;5.00;;;16.80;99.90;;;;;;5075933;28;20420;-70
2022/10/03 11:02:00;;;;;;;9.50;5.80;;;17.60;99.90;;;;;;5073524;28;20514;-69
2022/10/03 11:04:59;;;;;;;8.50;4.93;;;17.60;99.90;;;;;;5075966;28;20737;-69
2022/10/03 11:07:47;;;;;;;7.67;5.43;;;17.60;99.90;;;;;;5075908;28;20515;-70
2022/10/03 11:10:32;;;;;;;9.10;6.93;;;17.40;99.90;;;;;;5074778;28;20392;-70
2022/10/03 11:13:30;;;;;;;6.33;5.30;;;17.60;99.90;;;;;;5075572;28;20451;-71
2022/10/03 11:16:34;;;;;;;8.53;5.90;;;17.30;99.90;;;;;;5041847;28;20412;-70
2022/10/03 11:18:59;;;;;;;7.23;5.40;;;17.10;99.90;;;;;;5075794;28;20427;-70
2022/10/03 11:21:58;;;;;;;8.20;5.70;;;16.90;99.90;;;;;;5075542;28;20412;-71
2022/10/03 11:24:56;;;;;;;7.47;5.30;;;16.80;99.90;;;;;;5075071;28;20191;-70
2022/10/03 11:27:50;;;;;;;12.80;7.03;;;16.90;99.90;;;;;;5074779;28;20751;-70
2022/10/03 11:30:37;;;;;;;5.57;4.90;;;16.90;99.90;;;;;;5074847;28;20388;-70
2022/10/03 11:33:22;;;;;;;8.43;5.50;;;17.50;99.90;;;;;;5073444;28;20428;-69
2022/10/03 11:36:18;;;;;;;10.63;5.00;;;19.00;99.90;;;;;;5074603;28;20396;-70
2022/10/03 11:39:05;;;;;;;5.97;5.37;;;21.60;99.90;;;;;;5075033;28;20424;-70
2022/10/03 11:41:57;;;;;;;7.17;4.77;;;23.50;97.90;;;;;;5074926;28;20407;-70
2022/10/03 11:44:25;;;;;;;11.37;5.43;;;24.20;95.70;;;;;;5073849;28;20420;-70
2022/10/03 11:47:22;;;;;;;6.53;4.83;;;23.90;95.10;;;;;;5074382;28;20463;-70
2022/10/03 11:50:09;;;;;;;7.37;5.07;;;21.80;97.70;;;;;;5074327;28;20513;-69
2022/10/03 11:53:01;;;;;;;9.07;4.90;;;20.50;99.70;;;;;;5073867;28;20435;-70
2022/10/03 11:55:52;;;;;;;9.03;4.60;;;19.50;99.90;;;;;;5074111;28;20396;-70
2022/10/03 11:58:51;;;;;;;4.93;4.40;;;18.70;99.90;;;;;;5074364;28;20428;-70
2022/10/03 12:01:24;;;;;;;6.17;4.80;;;18.60;99.90;;;;;;5072904;28;20429;-69
2022/10/03 12:04:16;;;;;;;9.40;4.60;;;18.90;99.90;;;;;;5074316;28;20403;-70
2022/10/03 12:09:54;;;;;;;5.77;3.20;;;21.90;97.20;;;;;;5074639;28;20733;-70
2022/10/03 12:12:34;;;;;;;5.90;2.93;;;24.20;93.00;;;;;;5074318;28;20926;-70
2022/10/03 12:15:18;;;;;;;4.30;2.83;;;25.10;90.60;;;;;;5073877;28;20396;-70
2022/10/03 12:17:54;;;;;;;8.50;3.73;;;25.40;85.00;;;;;;5074166;28;20515;-70
2022/10/03 12:20:29;;;;;;;7.33;3.93;;;24.00;87.10;;;;;;5074071;28;20803;-72
2022/10/03 12:23:13;;;;;;;5.27;3.03;;;24.30;88.30;;;;;;5074574;28;20396;-71
2022/10/03 12:25:41;;;;;;;5.37;2.90;;;24.80;86.00;;;;;;5073179;28;20778;-70
2022/10/03 12:28:14;;;;;;;4.87;3.10;;;23.70;87.00;;;;;;5074421;28;20969;-70
2022/10/03 12:31:00;;;;;;;6.53;3.57;;;21.90;92.20;;;;;;5073583;28;20411;-70
2022/10/03 12:33:51;;;;;;;10.50;3.13;;;21.80;92.50;;;;;;5076377;28;20440;-70
2022/10/03 12:36:39;;;;;;;7.07;4.47;;;21.70;91.90;;;;;;5076551;28;20492;-70
2022/10/03 12:39:15;;;;;;;5.70;3.70;;;21.40;93.70;;;;;;5075121;28;20929;-71
2022/10/03 12:41:54;;;;;;;10.03;3.33;;;22.40;92.20;;;;;;5076194;28;20753;-71
2022/10/03 12:44:29;;;;;;;8.90;3.87;;;23.10;91.40;;;;;;5075403;28;20388;-70
2022/10/03 12:47:00;;;;;;;4.80;3.90;;;22.80;90.20;;;;;;5073766;28;20443;-70
2022/10/03 12:50:05;;;;;;;4.90;3.40;;;21.90;92.40;;;;;;5073897;28;20444;-70
2022/10/03 12:52:36;;;;;;;5.07;3.27;;;20.80;93.30;;;;;;5041865;28;20471;-70
2022/10/03 12:55:19;;;;;;;5.00;3.40;;;20.60;94.00;;;;;;5073603;28;20401;-70
2022/10/03 12:58:07;;;;;;;5.53;3.40;;;20.70;95.10;;;;;;5073593;28;20482;-71
2022/10/03 13:00:54;;;;;;;5.90;3.30;;;21.40;94.00;;;;;;5072113;28;20842;-71
2022/10/03 13:03:37;;;;;;;6.03;3.00;;;24.00;90.40;;;;;;5074153;28;20835;-70
2022/10/03 13:06:35;;;;;;;4.23;2.47;;;26.40;83.30;;;;;;5073877;28;20446;-71
2022/10/03 13:09:16;;;;;;;7.23;3.50;;;27.90;79.20;;;;;;5073375;28;20459;-71
2022/10/03 13:11:49;;;;;;;4.97;2.40;;;29.10;70.60;;;;;;5073147;28;20455;-70
2022/10/03 13:14:42;;;;;;;6.03;3.40;;;27.40;75.00;;;;;;5073341;28;20783;-71
2022/10/03 13:17:41;;;;;;;6.37;3.70;;;25.90;76.40;;;;;;5071954;28;20395;-71
2022/10/03 13:20:17;;;;;;;4.70;3.03;;;26.60;76.10;;;;;;5072591;28;20964;-71
2022/10/03 13:23:02;;;;;;;4.80;4.30;;;25.10;78.20;;;;;;5071535;28;20411;-69
2022/10/03 13:25:38;;;;;;;3.97;2.97;;;22.70;84.20;;;;;;5072890;28;20400;-70
2022/10/03 13:28:32;;;;;;;4.93;3.60;;;21.40;89.30;;;;;;5072480;28;20493;-70
2022/10/03 13:31:06;;;;;;;6.37;3.20;;;21.40;91.10;;;;;;5072171;28;20417;-69
2022/10/03 13:33:39;;;;;;;4.10;3.10;;;20.80;92.10;;;;;;5072595;28;20396;-70
2022/10/03 13:36:14;;;;;;;8.33;3.70;;;20.60;92.70;;;;;;5073108;28;20411;-70
2022/10/03 13:38:48;;;;;;;3.97;3.27;;;21.10;92.00;;;;;;5072488;28;20424;-70
2022/10/03 13:41:54;;;;;;;10.13;4.20;;;21.90;92.20;;;;;;5072695;28;20392;-70
2022/10/03 13:44:34;;;;;;;10.73;3.53;;;22.20;90.60;;;;;;5055187;28;20419;-70
2022/10/03 13:47:21;;;;;;;6.47;3.77;;;21.90;89.40;;;;;;5071158;28;20420;-69
2022/10/03 13:49:57;;;;;;;7.47;3.70;;;21.10;90.70;;;;;;5072532;28;20476;-69
2022/10/03 13:53:01;;;;;;;4.90;3.43;;;20.20;92.00;;;;;;5071603;28;20447;-69
2022/10/03 13:55:47;;;;;;;5.17;3.23;;;20.20;93.10;;;;;;5072673;28;20423;-69
2022/10/03 13:58:44;;;;;;;4.03;3.03;;;19.90;93.60;;;;;;5071247;28;20456;-69
2022/10/03 14:01:33;;;;;;;3.57;2.67;;;20.10;92.60;;;;;;5072469;28;20392;-70
2022/10/03 14:04:24;;;;;;;8.40;4.27;;;21.80;91.30;;;;;;5072470;28;20385;-69
2022/10/03 14:07:07;;;;;;;6.47;3.00;;;22.20;90.00;;;;;;5072157;28;20392;-69
2022/10/03 14:09:37;;;;;;;4.50;3.20;;;21.60;90.30;;;;;;5072295;28;20388;-69
2022/10/03 14:12:11;;;;;;;7.83;4.40;;;21.80;91.60;;;;;;5071200;28;20849;-69
2022/10/03 14:15:03;;;;;;;4.10;2.80;;;22.00;90.50;;;;;;5072089;28;20879;-70
2022/10/03 14:17:50;;;;;;;4.70;2.67;;;21.80;90.20;;;;;;5071885;28;20793;-69
2022/10/03 14:20:41;;;;;;;5.17;2.63;;;21.10;90.60;;;;;;5071298;28;20420;-69
2022/10/03 14:23:34;;;;;;;3.63;3.00;;;21.50;90.70;;;;;;5072001;28;20962;-69
2022/10/03 14:26:32;;;;;;;4.60;2.63;;;20.40;91.40;;;;;;5070940;28;20416;-69
2022/10/03 14:29:34;;;;;;;5.33;2.93;;;20.30;91.80;;;;;;5072796;28;20424;-69
2022/10/03 14:32:24;;;;;;;3.33;2.60;;;20.00;93.30;;;;;;5076223;28;20768;-69
2022/10/03 14:34:58;;;;;;;6.70;3.30;;;19.70;92.40;;;;;;5076946;28;20679;-69
2022/10/03 14:37:41;;;;;;;5.07;3.70;;;19.80;93.00;;;;;;5075759;28;20518;-69